createdAt,value
2018-12-05T00:04:25.817Z,102180.13
2018-12-05T00:09:20.599Z,102186.28
2018-12-05T00:14:15.428Z,102178.91
2018-12-05T00:19:10.177Z,102170.22
2018-12-05T00:24:05.112Z,102168.95
2018-12-05T00:28:59.893Z,102172.02
2018-12-05T00:33:54.720Z,102172.91
2018-12-05T00:38:49.543Z,102171.63
2018-12-05T00:43:44.329Z,102174.28
2018-12-05T00:48:39.106Z,102174.33
2018-12-05T00:53:33.887Z,102177.81
2018-12-05T00:58:28.633Z,102175.20
2018-12-05T01:03:23.431Z,102183.48
2018-12-05T01:08:18.557Z,102179.13
2018-12-05T01:13:13.340Z,102179.09
2018-12-05T01:18:08.071Z,102171.22
2018-12-05T01:23:02.898Z,102175.08
2018-12-05T01:27:57.716Z,102172.44
2018-12-05T01:32:52.487Z,102164.58
2018-12-05T01:37:47.332Z,102169.84
2018-12-05T01:42:42.090Z,102168.12
2018-12-05T01:47:36.836Z,102165.50
2018-12-05T01:52:31.681Z,102159.39
2018-12-05T01:57:26.449Z,102146.73
2018-12-05T02:02:21.240Z,102152.46
2018-12-05T02:07:16.039Z,102147.64
2018-12-05T02:12:10.825Z,102155.48
2018-12-05T02:17:07.330Z,102159.44
2018-12-05T02:22:02.172Z,102157.27
2018-12-05T02:26:56.943Z,102162.09
2018-12-05T02:31:51.784Z,102152.02
2018-12-05T02:36:46.600Z,102147.22
2018-12-05T02:41:41.390Z,102148.04
2018-12-05T02:46:36.149Z,102151.55
2018-12-05T02:51:30.926Z,102141.52
2018-12-05T02:56:25.724Z,102133.22
2018-12-05T03:01:20.557Z,102116.20
2018-12-05T03:06:15.316Z,102113.59
2018-12-05T03:11:10.123Z,102107.53
2018-12-05T03:16:04.910Z,102106.27
2018-12-05T03:20:59.719Z,102118.95
2018-12-05T03:25:54.451Z,102112.43
2018-12-05T03:30:49.322Z,102103.33
2018-12-05T03:35:44.314Z,102104.65
2018-12-05T03:40:39.132Z,102114.23
2018-12-05T03:45:33.939Z,102116.42
2018-12-05T03:50:28.767Z,102118.17
2018-12-05T03:55:23.557Z,102110.80
2018-12-05T04:00:18.481Z,102114.70
2018-12-05T04:05:13.291Z,102113.82
2018-12-05T04:10:08.219Z,102113.82
2018-12-05T04:15:03.031Z,102102.06
2018-12-05T04:19:57.828Z,102082.91
2018-12-05T04:24:52.593Z,102100.36
2018-12-05T04:29:47.453Z,102108.17
2018-12-05T04:34:42.269Z,102117.36
2018-12-05T04:39:37.090Z,102121.30
2018-12-05T04:44:32.828Z,102120.02
2018-12-05T04:49:27.840Z,102118.27
2018-12-05T04:54:22.675Z,102121.77
2018-12-05T04:59:17.483Z,102111.75
2018-12-05T05:04:12.373Z,102106.98
2018-12-05T05:09:08.876Z,102117.86
2018-12-05T05:14:03.726Z,102120.89
2018-12-05T05:18:58.625Z,102104.79
2018-12-05T05:23:53.437Z,102099.98
2018-12-05T05:28:48.238Z,102086.91
2018-12-05T05:33:43.210Z,102082.53
2018-12-05T05:38:38.016Z,102089.46
2018-12-05T05:43:32.833Z,102080.73
2018-12-05T05:48:27.656Z,102083.77
2018-12-05T05:53:22.519Z,102081.56
2018-12-05T05:58:17.431Z,102083.74
2018-12-05T06:03:12.258Z,102072.83
2018-12-05T06:08:07.167Z,102077.16
2018-12-05T06:13:02.010Z,102069.75
2018-12-05T06:17:56.819Z,102070.59
2018-12-05T06:22:51.689Z,102068.84
2018-12-05T06:27:46.495Z,102057.03
2018-12-05T06:32:41.361Z,102069.21
2018-12-05T06:37:36.222Z,102071.80
2018-12-05T06:42:31.023Z,102077.03
2018-12-05T06:47:25.896Z,102089.67
2018-12-05T06:52:20.679Z,102087.47
2018-12-05T06:57:15.555Z,102077.43
2018-12-05T07:02:10.466Z,102085.25
2018-12-05T07:07:05.349Z,102086.59
2018-12-05T07:12:00.178Z,102091.78
2018-12-05T07:16:55.163Z,102076.91
2018-12-05T07:21:50.024Z,102095.19
2018-12-05T07:26:44.879Z,102101.27
2018-12-05T07:31:39.771Z,102095.57
2018-12-05T07:36:34.606Z,102095.09
2018-12-05T07:41:29.430Z,102081.55
2018-12-05T07:46:24.176Z,102085.00
2018-12-05T07:51:19.032Z,102084.95
2018-12-05T07:56:13.826Z,102074.47
2018-12-05T08:01:08.671Z,102068.72
2018-12-05T08:06:03.477Z,102066.50
2018-12-05T08:10:58.452Z,102057.30
2018-12-05T08:15:53.348Z,102051.52
2018-12-05T08:20:48.160Z,102050.97
2018-12-05T08:25:42.976Z,102039.58
2018-12-05T08:30:37.771Z,102032.94
2018-12-05T08:35:32.600Z,102021.11
2018-12-05T08:40:27.459Z,102017.16
2018-12-05T08:45:22.533Z,102016.21
2018-12-05T08:50:17.320Z,102013.93
2018-12-05T08:55:12.389Z,102016.92
2018-12-05T09:00:08.807Z,102022.47
2018-12-05T09:05:03.627Z,102012.79
2018-12-05T09:09:58.500Z,102016.61
2018-12-05T09:14:53.395Z,102016.84
2018-12-05T09:19:48.226Z,102011.01
2018-12-05T09:24:43.032Z,102003.00
2018-12-05T09:29:37.963Z,101999.84
2018-12-05T09:34:32.804Z,101988.92
2018-12-05T09:39:27.630Z,101981.77
2018-12-05T09:44:22.561Z,101971.97
2018-12-05T09:49:17.399Z,101961.39
2018-12-05T09:54:12.261Z,101963.45
2018-12-05T09:59:07.051Z,101951.96
2018-12-05T10:04:01.887Z,101957.43
2018-12-05T10:08:56.803Z,101949.38
2018-12-05T10:13:51.747Z,101947.83
2018-12-05T10:18:46.580Z,101953.78
2018-12-05T10:23:41.362Z,101941.68
2018-12-05T10:28:36.188Z,101955.98
2018-12-05T10:33:31.243Z,101946.72
2018-12-05T10:38:26.179Z,101946.78
2018-12-05T10:43:21.043Z,101925.88
2018-12-05T10:48:15.905Z,101903.03
2018-12-05T10:53:10.717Z,101887.94
2018-12-05T10:58:05.548Z,101880.36
2018-12-05T11:03:05.559Z,101871.45
2018-12-05T11:08:05.843Z,101870.14
2018-12-05T11:13:05.770Z,101863.94
2018-12-05T11:18:06.194Z,101850.06
2018-12-05T11:23:05.976Z,101848.53
2018-12-05T11:28:01.262Z,101837.85
2018-12-05T11:32:56.295Z,101824.15
2018-12-05T11:37:51.126Z,101825.08
2018-12-05T11:42:46.025Z,101818.78
2018-12-05T11:47:40.878Z,101805.42
2018-12-05T11:52:35.750Z,101799.31
2018-12-05T11:57:30.527Z,101782.95
2018-12-05T12:02:25.314Z,101785.77
2018-12-05T12:07:20.072Z,101782.48
2018-12-05T12:12:19.943Z,101786.84
2018-12-05T12:17:14.784Z,101770.95
2018-12-05T12:22:09.727Z,101754.14
2018-12-05T12:27:04.588Z,101760.41
2018-12-05T12:31:59.403Z,101756.11
2018-12-05T12:36:54.171Z,101759.45
2018-12-05T12:41:49.115Z,101741.76
2018-12-05T12:46:43.931Z,101734.28
2018-12-05T12:51:38.839Z,101730.91
2018-12-05T12:56:33.851Z,101728.98
2018-12-05T13:01:28.750Z,101725.13
2018-12-05T13:06:23.537Z,101711.99
2018-12-05T13:11:18.360Z,101705.31
2018-12-05T13:16:13.149Z,101691.50
2018-12-05T13:21:08.060Z,101687.17
2018-12-05T13:26:02.850Z,101678.30
2018-12-05T13:30:57.654Z,101667.77
2018-12-05T13:35:52.479Z,101659.06
2018-12-05T13:40:47.373Z,101643.16
2018-12-05T13:45:42.188Z,101629.90
2018-12-05T13:50:37.033Z,101637.72
2018-12-05T13:55:31.931Z,101641.61
2018-12-05T14:00:27.054Z,101641.17
2018-12-05T14:05:21.926Z,101628.20
2018-12-05T14:10:16.767Z,101620.39
2018-12-05T14:15:11.868Z,101611.40
2018-12-05T14:20:08.979Z,101606.83
2018-12-05T14:25:03.829Z,101603.31
2018-12-05T14:29:58.652Z,101606.50
2018-12-05T14:34:53.504Z,101602.16
2018-12-05T14:39:48.410Z,101590.00
2018-12-05T14:44:43.224Z,101582.64
2018-12-05T14:49:38.249Z,101577.62
2018-12-05T14:54:33.261Z,101565.00
2018-12-05T14:59:28.102Z,101560.99
2018-12-05T15:04:22.907Z,101566.41
2018-12-05T15:09:17.785Z,101548.91
2018-12-05T15:14:12.595Z,101549.89
2018-12-05T15:19:07.399Z,101536.97
2018-12-05T15:24:02.279Z,101531.90
2018-12-05T15:28:57.153Z,101503.12
2018-12-05T15:33:52.067Z,101510.21
2018-12-05T15:38:46.945Z,101499.28
2018-12-05T15:43:41.865Z,101489.63
2018-12-05T15:48:36.821Z,101480.96
2018-12-05T15:53:31.692Z,101472.33
2018-12-05T15:58:26.647Z,101454.05
2018-12-05T16:03:21.455Z,101434.02
2018-12-05T16:08:16.309Z,101442.37
2018-12-05T16:13:11.183Z,101438.90
2018-12-05T16:18:06.105Z,101431.15
2018-12-05T16:23:00.913Z,101423.59
2018-12-05T16:27:56.065Z,101427.64
2018-12-05T16:32:50.890Z,101416.77
2018-12-05T16:37:45.779Z,101416.82
2018-12-05T16:42:40.846Z,101400.66
2018-12-05T16:47:35.679Z,101400.41
2018-12-05T16:52:30.571Z,101400.46
2018-12-05T16:57:25.427Z,101402.67
2018-12-05T17:02:20.273Z,101403.83
2018-12-05T17:07:15.244Z,101409.58
2018-12-05T17:12:10.035Z,101397.36
2018-12-05T17:17:05.055Z,101399.94
2018-12-05T17:21:59.851Z,101379.41
2018-12-05T17:26:54.757Z,101379.80
2018-12-05T17:31:49.553Z,101373.66
2018-12-05T17:36:44.353Z,101360.06
2018-12-05T17:41:39.171Z,101360.78
2018-12-05T17:46:34.042Z,101345.33
2018-12-05T17:51:28.893Z,101337.27
2018-12-05T17:56:23.708Z,101303.87
2018-12-05T18:01:18.553Z,101301.17
2018-12-05T18:06:13.388Z,101284.88
2018-12-05T18:11:08.191Z,101300.97
2018-12-05T18:16:03.055Z,101298.11
2018-12-05T18:20:58.023Z,101297.05
2018-12-05T18:25:52.976Z,101288.98
2018-12-05T18:30:47.844Z,101283.22
2018-12-05T18:35:42.697Z,101270.83
2018-12-05T18:40:37.510Z,101274.67
2018-12-05T18:45:32.353Z,101278.50
2018-12-05T18:50:27.274Z,101251.72
2018-12-05T18:55:22.329Z,101255.73
2018-12-05T19:00:17.172Z,101234.72
2018-12-05T19:05:12.062Z,101223.11
2018-12-05T19:10:06.945Z,101219.94
2018-12-05T19:15:02.673Z,101203.06
2018-12-05T19:19:58.714Z,101209.17
2018-12-05T19:24:53.734Z,101195.55
2018-12-05T19:29:49.910Z,101188.33
2018-12-05T19:34:44.706Z,101170.64
2018-12-05T19:39:41.452Z,101161.42
2018-12-05T19:44:36.757Z,101159.69
2018-12-05T19:49:32.294Z,101157.86
2018-12-05T19:54:28.905Z,101156.92
2018-12-05T19:59:27.587Z,101154.71
2018-12-05T20:04:27.405Z,101162.37
2018-12-05T20:09:26.799Z,101142.30
2018-12-05T20:14:34.368Z,101149.06
2018-12-05T20:19:33.929Z,101164.45
2018-12-05T20:24:28.916Z,101172.89
2018-12-05T20:29:23.852Z,101152.27
2018-12-05T20:34:18.715Z,101154.63
2018-12-05T20:39:13.635Z,101141.72
2018-12-05T20:44:08.854Z,101135.37
2018-12-05T20:49:03.952Z,101119.99
2018-12-05T20:53:59.515Z,101127.20
2018-12-05T20:58:54.351Z,101122.05
2018-12-05T21:10:03.436Z,101124.70
2018-12-05T21:15:01.172Z,101122.39
2018-12-05T21:20:03.209Z,101126.58
2018-12-05T21:25:01.430Z,101130.41
2018-12-05T21:29:59.528Z,101123.71
2018-12-05T21:34:57.407Z,101116.08
2018-12-05T21:39:57.647Z,101113.89
2018-12-05T21:44:55.536Z,101093.63
2018-12-05T21:49:53.043Z,101081.66
2018-12-05T21:54:50.965Z,101084.83
2018-12-05T21:59:51.709Z,101081.78
2018-12-05T22:04:50.996Z,101080.81
2018-12-05T22:09:49.546Z,101075.94
2018-12-05T22:19:58.743Z,101068.03
2018-12-05T22:24:58.132Z,101068.90
2018-12-05T22:29:56.875Z,101056.24
2018-12-05T22:34:56.891Z,101053.48
2018-12-05T22:39:55.075Z,101049.92
2018-12-05T22:44:52.710Z,101044.53
2018-12-05T22:49:50.980Z,101040.16
2018-12-05T22:54:50.904Z,101031.13
2018-12-05T22:59:49.403Z,101014.88
2018-12-05T23:04:46.274Z,101025.99
2018-12-05T23:09:43.115Z,101028.82
2018-12-05T23:14:43.903Z,101028.59
2018-12-05T23:19:41.803Z,101013.91
2018-12-05T23:24:40.462Z,101004.37
2018-12-05T23:29:39.978Z,101002.25
2018-12-05T23:34:38.140Z,101005.33
2018-12-05T23:39:37.027Z,101003.63
2018-12-05T23:44:35.800Z,101000.31
2018-12-05T23:49:34.956Z,100990.30
2018-12-05T23:54:33.473Z,100997.48
2018-12-05T23:59:39.167Z,100993.05
